Time;durP1;ratioP1;P1;durP2;ratioP2;P2;SDS_P1;SDS_P2;PMS_P1;PMS_P2;Temp;Humidity;BMP_temperature;BMP_pressure;BME280_temperature;BME280_humidity;BME280_pressure;Samples;Min_cycle;Max_cycle;Signal;HPM_P1;HPM_P2
2022/01/28 00:01:02;;;;;;;10.47;8.33;;;3.40;99.90;;;;;;10349377;28;20664;-75
2022/01/28 00:06:04;;;;;;;10.87;8.30;;;3.40;99.90;;;;;;10357046;28;20292;-75
2022/01/28 00:11:04;;;;;;;11.83;8.37;;;3.40;99.90;;;;;;10351575;28;20917;-75
2022/01/28 00:16:44;;;;;;;10.43;8.33;;;3.40;99.90;;;;;;10351024;28;20285;-75
2022/01/28 00:42:55;;;;;;;14.33;10.27;;;3.50;99.90;;;;;;10356728;28;20213;-75
2022/01/28 00:47:56;;;;;;;14.10;10.23;;;3.50;99.90;;;;;;10345442;28;20677;-76
2022/01/28 00:52:59;;;;;;;12.10;9.90;;;3.50;99.90;;;;;;10353708;28;20303;-76
2022/01/28 00:58:01;;;;;;;11.97;9.60;;;3.60;99.90;;;;;;10366085;28;20225;-75
2022/01/28 01:03:01;;;;;;;12.60;10.10;;;3.60;99.90;;;;;;10364964;28;20217;-75
2022/01/28 01:08:06;;;;;;;12.33;9.97;;;3.70;99.90;;;;;;10355240;28;20225;-75
2022/01/28 01:13:06;;;;;;;12.73;10.00;;;3.70;99.90;;;;;;10364877;28;20317;-75
2022/01/28 01:18:20;;;;;;;15.30;10.60;;;3.80;99.90;;;;;;10364517;28;20308;-75
2022/01/28 01:23:50;;;;;;;12.23;9.47;;;3.70;99.90;;;;;;10356360;28;20280;-75
2022/01/28 01:28:43;;;;;;;11.93;8.97;;;3.80;99.90;;;;;;10372196;28;20240;-75
2022/01/28 01:33:54;;;;;;;15.30;10.23;;;3.80;99.90;;;;;;10353774;28;20317;-75
2022/01/28 01:38:55;;;;;;;15.03;10.13;;;3.90;99.90;;;;;;10354054;28;20228;-75
2022/01/28 01:44:04;;;;;;;13.83;10.03;;;3.90;99.90;;;;;;10355989;28;20222;-76
2022/01/28 01:54:24;;;;;;;12.07;9.30;;;4.00;99.90;;;;;;10365786;28;20233;-75
2022/01/28 01:59:26;;;;;;;12.83;8.87;;;4.00;99.90;;;;;;10352675;28;20217;-74
2022/01/28 02:04:33;;;;;;;13.27;10.30;;;3.80;99.90;;;;;;10351907;28;20222;-75
2022/01/28 02:09:34;;;;;;;14.00;9.73;;;3.70;99.90;;;;;;10358852;28;20285;-75
2022/01/28 02:14:36;;;;;;;12.93;9.77;;;3.60;99.90;;;;;;10362199;28;20221;-75
2022/01/28 02:19:38;;;;;;;12.47;9.50;;;3.50;99.90;;;;;;10361990;28;20221;-75
2022/01/28 02:24:43;;;;;;;13.17;9.77;;;3.40;99.90;;;;;;10362782;28;20724;-76
2022/01/28 02:29:45;;;;;;;14.90;9.87;;;3.20;99.90;;;;;;10357974;28;20617;-75
2022/01/28 02:34:46;;;;;;;15.73;10.30;;;3.00;99.90;;;;;;10358269;28;20297;-75
2022/01/28 02:39:47;;;;;;;13.80;9.57;;;2.90;99.90;;;;;;10352957;28;20213;-76
2022/01/28 02:44:51;;;;;;;12.83;10.00;;;2.90;99.90;;;;;;10357446;28;20209;-75
2022/01/28 02:49:58;;;;;;;13.30;8.20;;;3.00;99.90;;;;;;10351300;28;20233;-75
2022/01/28 02:55:00;;;;;;;12.10;8.00;;;3.10;99.90;;;;;;10356349;28;20241;-76
2022/01/28 03:00:01;;;;;;;13.67;7.50;;;3.30;99.90;;;;;;10363959;28;20708;-76
2022/01/28 03:15:17;;;;;;;11.37;5.10;;;3.70;99.90;;;;;;10348178;28;20222;-75
2022/01/28 03:25:21;;;;;;;10.37;5.00;;;3.90;99.90;;;;;;10353230;28;20233;-75
2022/01/28 03:30:22;;;;;;;7.40;4.63;;;4.00;99.90;;;;;;10349083;28;20869;-76
2022/01/28 03:35:23;;;;;;;8.80;4.83;;;4.00;99.90;;;;;;10350365;28;21077;-75
2022/01/28 03:40:24;;;;;;;6.60;3.87;;;3.90;99.90;;;;;;10353003;28;20291;-75
2022/01/28 03:45:25;;;;;;;8.20;3.57;;;4.00;99.90;;;;;;10354864;28;20225;-76
2022/01/28 03:50:26;;;;;;;4.73;3.03;;;4.00;99.90;;;;;;10351136;28;20221;-75
2022/01/28 03:55:27;;;;;;;9.13;3.80;;;3.80;99.90;;;;;;10348306;28;20264;-74
2022/01/28 04:00:30;;;;;;;4.20;3.27;;;3.70;99.90;;;;;;10356679;28;20668;-75
2022/01/28 04:17:19;;;;;;;7.07;3.43;;;3.30;99.90;;;;;;10321315;28;20236;-74
2022/01/28 04:21:57;;;;;;;6.63;3.63;;;3.30;99.90;;;;;;10352341;28;20663;-75
2022/01/28 04:26:58;;;;;;;7.60;3.70;;;3.30;99.90;;;;;;10356597;28;20328;-75
2022/01/28 04:32:00;;;;;;;5.33;3.30;;;3.20;99.90;;;;;;10350515;28;20230;-76
2022/01/28 04:37:26;;;;;;;8.40;3.50;;;3.20;99.90;;;;;;10361660;28;20258;-75
2022/01/28 04:42:45;;;;;;;8.40;3.67;;;3.20;99.90;;;;;;10357257;28;20222;-75
2022/01/28 04:48:24;;;;;;;6.43;3.70;;;3.30;99.90;;;;;;10360168;28;20240;-75
2022/01/28 05:04:46;;;;;;;7.07;3.00;;;3.80;99.90;;;;;;10353179;28;20264;-74
2022/01/28 05:25:45;;;;;;;8.03;2.70;;;4.10;99.90;;;;;;10372714;28;20217;-74
2022/01/28 05:30:35;;;;;;;10.57;2.30;;;4.00;99.90;;;;;;10359379;28;20315;-75
2022/01/28 05:35:36;;;;;;;7.53;2.07;;;3.90;99.90;;;;;;10362174;28;20336;-74
2022/01/28 05:40:37;;;;;;;6.10;1.80;;;4.00;99.90;;;;;;10343386;28;20225;-74
2022/01/28 05:45:38;;;;;;;9.63;2.03;;;4.10;99.90;;;;;;10353797;28;20749;-75
2022/01/28 05:50:38;;;;;;;4.37;1.77;;;4.20;99.90;;;;;;10364588;28;20312;-76
2022/01/28 05:55:39;;;;;;;10.73;2.17;;;4.20;99.90;;;;;;10360820;28;20229;-76
2022/01/28 06:00:40;;;;;;;11.90;1.93;;;4.20;99.90;;;;;;10354859;28;20236;-74
2022/01/28 06:05:44;;;;;;;8.53;1.90;;;4.10;99.90;;;;;;10354636;28;20222;-75
2022/01/28 06:10:45;;;;;;;6.40;1.50;;;4.00;99.90;;;;;;10352833;28;20214;-74
2022/01/28 06:15:46;;;;;;;4.37;1.80;;;3.90;99.90;;;;;;10350890;28;20232;-75
2022/01/28 06:20:46;;;;;;;9.53;2.10;;;4.00;99.90;;;;;;10368563;28;20585;-75
2022/01/28 06:25:48;;;;;;;6.00;1.77;;;4.10;99.90;;;;;;10357204;28;20229;-75
2022/01/28 06:30:49;;;;;;;10.13;2.13;;;4.10;99.90;;;;;;10349682;28;20222;-74
2022/01/28 06:35:50;;;;;;;9.17;2.20;;;4.10;99.90;;;;;;10349295;28;20238;-75
2022/01/28 06:40:50;;;;;;;7.23;1.70;;;4.00;99.90;;;;;;10357848;28;20224;-75
2022/01/28 06:45:51;;;;;;;6.30;2.13;;;4.00;99.90;;;;;;10349439;28;20217;-75
2022/01/28 06:50:51;;;;;;;8.77;2.13;;;3.90;99.90;;;;;;10348392;28;20627;-75
2022/01/28 06:55:52;;;;;;;10.67;2.90;;;3.90;99.90;;;;;;10355861;28;20229;-74
2022/01/28 07:00:53;;;;;;;9.37;3.20;;;3.90;99.90;;;;;;10355987;28;20284;-73
2022/01/28 07:05:56;;;;;;;9.77;4.20;;;3.90;99.90;;;;;;10354268;28;20229;-76
2022/01/28 07:10:57;;;;;;;8.73;4.00;;;3.70;99.90;;;;;;10352415;28;20229;-74
2022/01/28 07:15:58;;;;;;;6.33;3.73;;;3.60;99.90;;;;;;10348715;28;20241;-74
2022/01/28 07:20:59;;;;;;;8.63;4.20;;;3.50;99.90;;;;;;10352870;28;20235;-75
2022/01/28 07:26:00;;;;;;;9.17;3.90;;;3.40;99.90;;;;;;10357368;28;20878;-75
2022/01/28 07:31:00;;;;;;;10.73;4.17;;;3.30;99.90;;;;;;10350415;28;20247;-74
2022/01/28 07:36:01;;;;;;;7.00;3.80;;;3.40;99.90;;;;;;10355598;28;20263;-75
2022/01/28 07:41:02;;;;;;;8.83;3.70;;;3.40;99.90;;;;;;10335620;28;20233;-75
2022/01/28 07:46:03;;;;;;;10.60;3.83;;;3.60;99.90;;;;;;10355409;28;20259;-74
2022/01/28 07:51:04;;;;;;;7.70;3.47;;;3.80;99.90;;;;;;10353486;28;20711;-75
2022/01/28 07:56:06;;;;;;;5.47;3.10;;;4.30;99.90;;;;;;10356993;28;20320;-75
2022/01/28 08:01:07;;;;;;;6.23;2.90;;;4.60;99.90;;;;;;10345821;28;20277;-74
2022/01/28 08:06:08;;;;;;;7.20;2.57;;;4.80;99.90;;;;;;10348980;28;20246;-74
2022/01/28 08:11:08;;;;;;;8.27;2.70;;;5.20;99.90;;;;;;10350479;28;20233;-75
2022/01/28 08:16:09;;;;;;;8.17;2.50;;;5.70;99.90;;;;;;10348950;28;20235;-76
2022/01/28 08:21:10;;;;;;;6.80;2.50;;;6.30;99.90;;;;;;10354442;28;20229;-75
2022/01/28 08:26:11;;;;;;;5.87;2.33;;;6.70;99.90;;;;;;10350327;28;20713;-75
2022/01/28 08:31:12;;;;;;;6.40;2.37;;;6.60;99.90;;;;;;10349259;28;20225;-75
2022/01/28 08:36:13;;;;;;;6.70;2.70;;;6.20;99.90;;;;;;10349647;28;20714;-75
2022/01/28 08:41:13;;;;;;;7.03;2.07;;;5.80;99.90;;;;;;10348200;28;20289;-75
2022/01/28 08:46:14;;;;;;;8.47;2.27;;;5.70;99.90;;;;;;10348536;28;20750;-75
2022/01/28 08:51:15;;;;;;;10.77;2.60;;;5.60;99.90;;;;;;10357660;28;20228;-74
2022/01/28 08:56:16;;;;;;;7.90;2.77;;;5.60;99.90;;;;;;10348733;28;20240;-77
2022/01/28 09:01:16;;;;;;;9.37;2.40;;;5.60;99.90;;;;;;10351635;28;20685;-75
2022/01/28 09:06:17;;;;;;;8.83;2.20;;;5.70;99.90;;;;;;10347264;28;20225;-75
2022/01/28 09:16:21;;;;;;;7.40;2.47;;;6.20;99.90;;;;;;10352316;28;20230;-75
2022/01/28 09:21:22;;;;;;;9.63;2.30;;;6.80;99.90;;;;;;10355225;28;20217;-75
2022/01/28 09:26:23;;;;;;;8.50;2.70;;;7.60;99.90;;;;;;10357127;28;20222;-75
2022/01/28 09:31:23;;;;;;;7.70;2.20;;;7.80;99.90;;;;;;10360396;28;20741;-74
2022/01/28 09:36:24;;;;;;;8.97;2.00;;;7.50;99.90;;;;;;10358786;28;20231;-75
2022/01/28 09:41:25;;;;;;;8.13;2.40;;;7.40;99.90;;;;;;10352624;28;20228;-74
2022/01/28 09:46:25;;;;;;;6.90;2.27;;;8.80;99.90;;;;;;10357100;28;20236;-75
2022/01/28 09:51:26;;;;;;;7.77;2.50;;;10.60;99.90;;;;;;10352323;28;20251;-75
2022/01/28 09:56:29;;;;;;;8.67;1.80;;;14.80;99.90;;;;;;10369359;28;20226;-74
2022/01/28 10:01:30;;;;;;;8.33;2.43;;;12.90;97.80;;;;;;10361450;28;20236;-75
2022/01/28 10:06:35;;;;;;;8.43;2.40;;;11.00;99.90;;;;;;10357686;28;20653;-75
2022/01/28 10:11:38;;;;;;;8.80;1.97;;;9.70;99.90;;;;;;10350633;28;20239;-75
2022/01/28 10:16:39;;;;;;;7.53;2.30;;;9.10;99.90;;;;;;10361694;28;20235;-76
2022/01/28 10:21:43;;;;;;;11.33;2.20;;;8.80;99.90;;;;;;10363182;28;20224;-75
2022/01/28 10:26:50;;;;;;;7.70;2.27;;;8.70;99.90;;;;;;10354856;28;20231;-75
2022/01/28 10:31:59;;;;;;;9.70;2.37;;;8.60;99.90;;;;;;10358909;28;20219;-75
2022/01/28 10:37:18;;;;;;;8.57;2.23;;;8.90;99.90;;;;;;10356681;28;20231;-75
2022/01/28 10:42:38;;;;;;;7.17;2.13;;;8.70;99.90;;;;;;10345232;28;20215;-75
2022/01/28 10:47:42;;;;;;;7.33;2.77;;;8.50;99.90;;;;;;10341250;28;20231;-76
2022/01/28 10:52:42;;;;;;;10.97;2.53;;;8.50;99.90;;;;;;10349417;28;20658;-75
2022/01/28 10:58:00;;;;;;;9.53;2.80;;;8.40;99.90;;;;;;10366680;28;20286;-75
2022/01/28 11:03:09;;;;;;;12.00;3.00;;;8.30;99.90;;;;;;10352084;28;20219;-75
2022/01/28 11:08:11;;;;;;;14.43;2.73;;;8.20;99.90;;;;;;10346423;28;20215;-75
2022/01/28 11:13:12;;;;;;;8.13;2.30;;;7.90;99.90;;;;;;10355754;28;20211;-75
2022/01/28 11:18:14;;;;;;;9.97;2.47;;;7.80;99.90;;;;;;10363005;28;20232;-75
2022/01/28 11:23:33;;;;;;;7.83;2.47;;;8.60;99.90;;;;;;10361523;28;20577;-76
2022/01/28 11:28:41;;;;;;;6.30;2.10;;;11.00;99.90;;;;;;10357293;28;20241;-75
2022/01/28 11:33:50;;;;;;;6.33;1.93;;;11.00;99.90;;;;;;10356412;28;20650;-75
2022/01/28 11:38:50;;;;;;;9.40;2.47;;;10.50;99.90;;;;;;10355490;28;20246;-75
2022/01/28 11:43:55;;;;;;;10.90;2.53;;;10.00;99.90;;;;;;10337212;28;20250;-74
2022/01/28 11:48:56;;;;;;;9.63;2.60;;;9.60;99.90;;;;;;10343091;28;20293;-76
2022/01/28 11:54:00;;;;;;;14.63;2.57;;;9.30;99.90;;;;;;10355492;28;20278;-75
2022/01/28 11:59:03;;;;;;;8.73;2.60;;;9.20;99.90;;;;;;10353308;28;20223;-75
2022/01/28 12:04:32;;;;;;;6.60;2.40;;;9.30;99.90;;;;;;10354836;28;20570;-75
2022/01/28 12:09:37;;;;;;;7.87;2.40;;;9.40;99.90;;;;;;10317509;28;20237;-75
2022/01/28 12:14:50;;;;;;;10.07;2.40;;;9.40;99.90;;;;;;10361585;28;20657;-75
2022/01/28 12:20:24;;;;;;;7.20;2.10;;;9.40;99.90;;;;;;10354269;28;20215;-75
2022/01/28 12:25:42;;;;;;;9.37;2.40;;;9.00;99.90;;;;;;10352486;28;20246;-75
2022/01/28 12:30:48;;;;;;;10.77;2.97;;;8.80;99.90;;;;;;10346754;28;20228;-75
2022/01/28 12:35:51;;;;;;;8.13;2.20;;;8.70;99.90;;;;;;10337454;28;20242;-75
2022/01/28 12:40:54;;;;;;;8.67;2.40;;;8.60;99.90;;;;;;10329938;28;20223;-76
2022/01/28 12:45:59;;;;;;;8.00;2.50;;;8.80;99.90;;;;;;10352079;28;20226;-75
2022/01/28 12:51:03;;;;;;;12.73;3.00;;;9.00;99.90;;;;;;10348807;28;20592;-76
2022/01/28 12:56:04;;;;;;;6.93;2.13;;;9.20;99.90;;;;;;10357018;28;20243;-75
2022/01/28 13:01:11;;;;;;;10.93;2.83;;;9.30;99.90;;;;;;10359350;28;20290;-76
2022/01/28 13:11:50;;;;;;;12.90;2.77;;;8.70;99.90;;;;;;10359222;28;20326;-74
2022/01/28 13:16:50;;;;;;;9.47;2.53;;;8.50;99.90;;;;;;10345233;28;20723;-75
2022/01/28 13:21:51;;;;;;;29.20;4.00;;;8.40;99.90;;;;;;10352446;28;20314;-74
2022/01/28 13:27:01;;;;;;;8.80;2.33;;;8.20;99.90;;;;;;10359441;28;20229;-75
2022/01/28 13:32:14;;;;;;;13.23;3.13;;;8.20;99.90;;;;;;10358389;28;20234;-76
2022/01/28 13:37:34;;;;;;;12.43;2.87;;;8.30;99.90;;;;;;10351445;28;20291;-75
2022/01/28 13:43:02;;;;;;;9.97;2.53;;;8.50;99.90;;;;;;10357413;28;20228;-75
2022/01/28 13:48:05;;;;;;;12.53;3.37;;;8.60;99.90;;;;;;10356021;28;20672;-75
2022/01/28 13:58:46;;;;;;;8.53;2.80;;;8.20;99.90;;;;;;10351566;28;20240;-76
2022/01/28 14:03:48;;;;;;;9.00;2.47;;;8.20;99.90;;;;;;10353488;28;20715;-76
2022/01/28 14:08:53;;;;;;;12.53;2.73;;;8.10;99.90;;;;;;10351889;28;20300;-75
2022/01/28 14:14:08;;;;;;;9.47;2.33;;;8.00;99.90;;;;;;10358984;28;20315;-75
2022/01/28 14:19:10;;;;;;;11.77;2.47;;;7.90;99.90;;;;;;10358393;28;20294;-74
2022/01/28 14:24:23;;;;;;;14.00;2.83;;;7.70;99.90;;;;;;10353380;28;20783;-75
2022/01/28 14:29:49;;;;;;;15.33;2.53;;;7.50;99.90;;;;;;10352756;28;20733;-74
2022/01/28 14:34:52;;;;;;;14.37;2.90;;;7.40;99.90;;;;;;10359748;28;20230;-75
2022/01/28 14:39:52;;;;;;;12.97;2.43;;;7.40;99.90;;;;;;10351011;28;20223;-75
2022/01/28 14:44:57;;;;;;;12.40;2.50;;;7.60;99.90;;;;;;10363406;28;20316;-76
2022/01/28 14:49:58;;;;;;;8.07;2.27;;;7.80;99.90;;;;;;10358662;28;20314;-74
2022/01/28 14:54:58;;;;;;;14.93;3.00;;;7.90;99.90;;;;;;10371145;28;20221;-75
2022/01/28 15:00:05;;;;;;;10.60;2.20;;;7.90;99.90;;;;;;10347711;28;20226;-75
2022/01/28 15:05:06;;;;;;;9.17;2.27;;;8.00;99.90;;;;;;10348778;28;20233;-76
2022/01/28 15:10:09;;;;;;;13.63;2.90;;;7.90;99.90;;;;;;10349041;28;20181;-75
2022/01/28 15:15:09;;;;;;;10.00;2.43;;;7.80;99.90;;;;;;10355504;28;20218;-75
2022/01/28 15:20:10;;;;;;;8.10;1.60;;;7.70;99.90;;;;;;10355449;28;20207;-74
2022/01/28 15:25:11;;;;;;;14.70;2.40;;;7.70;99.90;;;;;;10351563;28;20174;-76
2022/01/28 15:40:42;;;;;;;7.20;1.60;;;7.30;99.90;;;;;;10349014;28;20219;-75
2022/01/28 15:45:46;;;;;;;8.27;1.80;;;7.20;99.90;;;;;;10359515;28;20245;-75
2022/01/28 15:50:51;;;;;;;8.90;1.77;;;7.20;99.90;;;;;;10350290;28;20222;-76
2022/01/28 15:55:55;;;;;;;11.07;2.17;;;7.10;99.90;;;;;;10365205;28;20238;-76
2022/01/28 16:00:55;;;;;;;7.17;1.90;;;7.10;99.90;;;;;;10358964;28;20273;-76
2022/01/28 16:05:58;;;;;;;7.40;2.07;;;7.00;99.90;;;;;;10358830;28;20287;-75
2022/01/28 16:21:09;;;;;;;5.73;1.43;;;6.50;99.90;;;;;;10353433;28;20225;-74
2022/01/28 16:26:13;;;;;;;11.90;2.17;;;6.30;99.90;;;;;;10355249;28;20481;-75
2022/01/28 16:31:13;;;;;;;7.93;2.37;;;6.20;99.90;;;;;;10357124;28;20230;-75
2022/01/28 16:36:14;;;;;;;9.03;2.43;;;6.00;99.90;;;;;;10356639;28;20316;-74
2022/01/28 16:41:15;;;;;;;5.90;1.73;;;6.00;99.90;;;;;;10349113;28;20226;-75
2022/01/28 16:46:16;;;;;;;8.53;2.60;;;6.00;99.90;;;;;;10361706;28;20233;-75
2022/01/28 16:51:16;;;;;;;6.37;1.83;;;5.90;99.90;;;;;;10358627;28;20767;-74
2022/01/28 16:56:18;;;;;;;5.90;2.00;;;5.70;99.90;;;;;;10366779;28;20240;-75
2022/01/28 17:01:19;;;;;;;8.50;2.83;;;5.50;99.90;;;;;;10359011;28;20229;-75
2022/01/28 17:06:26;;;;;;;9.87;2.90;;;5.20;99.90;;;;;;10358064;28;20226;-75
2022/01/28 17:16:35;;;;;;;9.63;2.93;;;4.80;99.90;;;;;;10363533;28;20297;-75
2022/01/28 17:21:36;;;;;;;9.27;2.80;;;4.60;99.90;;;;;;10352397;28;20360;-74
2022/01/28 17:26:36;;;;;;;8.00;2.57;;;4.60;99.90;;;;;;10352379;28;20313;-75
2022/01/28 17:31:37;;;;;;;12.30;3.80;;;4.60;99.90;;;;;;10359577;28;20309;-74
2022/01/28 17:36:37;;;;;;;8.60;3.67;;;4.60;99.90;;;;;;10350508;28;20230;-75
2022/01/28 17:41:39;;;;;;;12.37;4.20;;;4.60;99.90;;;;;;10355987;28;20225;-75
2022/01/28 17:46:39;;;;;;;12.93;4.23;;;4.50;99.90;;;;;;10362806;28;20597;-75
2022/01/28 17:51:43;;;;;;;8.70;4.10;;;4.50;99.90;;;;;;10359984;28;20231;-75
2022/01/28 17:56:44;;;;;;;12.63;5.03;;;4.60;99.90;;;;;;10357063;28;20241;-74
2022/01/28 18:01:44;;;;;;;7.50;3.83;;;4.50;99.90;;;;;;10357016;28;20230;-75
2022/01/28 18:06:45;;;;;;;9.73;2.87;;;4.50;99.90;;;;;;10349943;28;20226;-74
2022/01/28 18:11:45;;;;;;;8.27;3.20;;;4.50;99.90;;;;;;10357518;28;20232;-74
2022/01/28 18:16:46;;;;;;;9.70;2.70;;;4.50;99.90;;;;;;10349157;28;20284;-75
2022/01/28 18:21:47;;;;;;;7.53;2.63;;;4.50;99.90;;;;;;10350320;28;20230;-75
2022/01/28 18:26:47;;;;;;;5.83;3.00;;;4.60;99.90;;;;;;10348767;28;20242;-74
2022/01/28 18:31:52;;;;;;;8.17;3.40;;;4.60;99.90;;;;;;10359433;28;20259;-76
2022/01/28 18:36:53;;;;;;;9.47;3.63;;;4.60;99.90;;;;;;10355979;28;20575;-74
2022/01/28 18:41:57;;;;;;;7.57;3.63;;;4.60;99.90;;;;;;10362800;28;20225;-76
2022/01/28 18:47:07;;;;;;;9.47;3.70;;;4.60;99.90;;;;;;10360380;28;20219;-75
2022/01/28 18:52:10;;;;;;;6.03;3.27;;;4.70;99.90;;;;;;10363865;28;20222;-75
2022/01/28 18:57:12;;;;;;;9.13;3.80;;;4.70;99.90;;;;;;10362311;28;20257;-74
2022/01/28 19:02:18;;;;;;;10.27;4.80;;;4.80;99.90;;;;;;10365873;28;20209;-75
2022/01/28 19:07:18;;;;;;;14.27;6.87;;;4.90;99.90;;;;;;10354452;28;20788;-74
2022/01/28 19:12:25;;;;;;;12.63;7.40;;;4.90;99.90;;;;;;10370356;28;20287;-76
2022/01/28 19:17:27;;;;;;;16.10;7.53;;;5.00;99.90;;;;;;10363480;28;20232;-76
2022/01/28 19:22:28;;;;;;;13.83;6.77;;;5.10;99.90;;;;;;10346716;28;20217;-74
2022/01/28 19:27:29;;;;;;;17.90;8.43;;;5.10;99.90;;;;;;10364542;28;20221;-74
2022/01/28 19:32:31;;;;;;;13.90;7.27;;;5.10;99.90;;;;;;10356777;28;20217;-76
2022/01/28 19:37:32;;;;;;;13.23;6.97;;;5.00;99.90;;;;;;10355286;28;20954;-76
2022/01/28 19:42:32;;;;;;;13.57;7.37;;;5.00;99.90;;;;;;10354007;28;20220;-75
2022/01/28 19:47:33;;;;;;;11.53;6.43;;;4.90;99.90;;;;;;10355106;28;20221;-75
2022/01/28 19:52:35;;;;;;;15.67;6.33;;;4.90;99.90;;;;;;10362137;28;20866;-75
2022/01/28 19:57:37;;;;;;;12.60;5.47;;;4.90;99.90;;;;;;10344722;28;20225;-75
2022/01/28 20:02:39;;;;;;;10.30;6.03;;;4.80;99.90;;;;;;10364308;28;20220;-76
2022/01/28 20:07:39;;;;;;;10.87;5.83;;;4.80;99.90;;;;;;10333205;28;20264;-75
2022/01/28 20:12:40;;;;;;;11.10;7.47;;;4.80;99.90;;;;;;10356758;28;20271;-76
2022/01/28 20:17:41;;;;;;;13.10;5.80;;;4.80;99.90;;;;;;10358859;28;20288;-75
2022/01/28 20:22:46;;;;;;;12.07;6.60;;;4.70;99.90;;;;;;10356773;28;20312;-75
2022/01/28 20:27:50;;;;;;;11.83;6.87;;;4.70;99.90;;;;;;10356102;28;20226;-75
2022/01/28 20:32:51;;;;;;;13.30;8.37;;;4.70;99.90;;;;;;10343231;28;20219;-76
2022/01/28 20:37:57;;;;;;;12.07;8.23;;;4.70;99.90;;;;;;10352995;28;20816;-75
2022/01/28 20:42:58;;;;;;;14.53;8.27;;;4.70;99.90;;;;;;10343764;28;20276;-76
2022/01/28 20:48:00;;;;;;;14.33;8.60;;;4.60;99.90;;;;;;10360507;28;20889;-76
2022/01/28 20:53:00;;;;;;;17.40;10.50;;;4.70;99.90;;;;;;10353006;28;20253;-76
2022/01/28 20:58:01;;;;;;;18.47;11.83;;;4.70;99.90;;;;;;10353736;28;20299;-76
2022/01/28 21:03:02;;;;;;;19.80;12.70;;;4.70;99.90;;;;;;10362652;28;20226;-75
2022/01/28 21:08:08;;;;;;;18.93;11.90;;;4.60;99.90;;;;;;10355217;28;20236;-74
2022/01/28 21:13:10;;;;;;;19.10;11.73;;;4.60;99.90;;;;;;10355057;28;20217;-76
2022/01/28 21:18:11;;;;;;;22.50;13.53;;;4.70;99.90;;;;;;10354929;28;20229;-76
2022/01/28 21:23:11;;;;;;;19.40;12.73;;;4.70;99.90;;;;;;10359146;28;20249;-76
2022/01/28 21:28:13;;;;;;;22.40;14.07;;;4.70;99.90;;;;;;10364558;28;20217;-75
2022/01/28 21:33:14;;;;;;;23.13;14.37;;;4.60;99.90;;;;;;10361912;28;20241;-75
2022/01/28 21:38:15;;;;;;;20.27;13.40;;;4.60;99.90;;;;;;10341734;28;20221;-75
2022/01/28 21:43:16;;;;;;;21.90;14.63;;;4.60;99.90;;;;;;10355551;28;20300;-74
2022/01/28 21:48:16;;;;;;;22.97;14.27;;;4.60;99.90;;;;;;10356133;28;20221;-74
2022/01/28 21:53:21;;;;;;;20.00;13.97;;;4.60;99.90;;;;;;10359823;28;20641;-75
2022/01/28 21:58:21;;;;;;;22.73;15.23;;;4.60;99.90;;;;;;10352183;28;20229;-74
2022/01/28 22:03:22;;;;;;;22.07;14.27;;;4.60;99.90;;;;;;10360637;28;21018;-74
2022/01/28 22:08:24;;;;;;;20.57;14.47;;;4.60;99.90;;;;;;10357874;28;20249;-75
2022/01/28 22:13:25;;;;;;;19.10;14.03;;;4.60;99.90;;;;;;10352370;28;20221;-74
2022/01/28 22:18:25;;;;;;;24.50;14.00;;;4.60;99.90;;;;;;10355021;28;20230;-75
2022/01/28 22:23:26;;;;;;;25.30;15.13;;;4.60;99.90;;;;;;10355554;28;20303;-76
2022/01/28 22:28:28;;;;;;;24.33;15.37;;;4.50;99.90;;;;;;10360546;28;20217;-74
2022/01/28 22:33:28;;;;;;;23.30;14.90;;;4.50;99.90;;;;;;10350252;28;20229;-75
2022/01/28 22:38:29;;;;;;;32.53;15.93;;;4.50;99.90;;;;;;10354678;28;20234;-75
2022/01/28 22:43:30;;;;;;;21.90;14.93;;;4.50;99.90;;;;;;10371864;28;20473;-75
2022/01/28 22:48:31;;;;;;;22.43;14.37;;;4.60;99.90;;;;;;10346410;28;20248;-76
2022/01/28 22:53:31;;;;;;;25.83;15.77;;;4.70;99.90;;;;;;10358632;28;20226;-75
2022/01/28 22:58:33;;;;;;;26.30;15.73;;;4.70;99.90;;;;;;10356279;28;20665;-75
2022/01/28 23:03:34;;;;;;;23.77;14.30;;;4.80;99.90;;;;;;10358696;28;20240;-75
2022/01/28 23:08:35;;;;;;;22.50;14.60;;;4.80;99.90;;;;;;10358172;28;20714;-75
2022/01/28 23:13:35;;;;;;;24.57;14.53;;;4.90;99.90;;;;;;10352670;28;20308;-75
2022/01/28 23:18:36;;;;;;;21.50;14.37;;;4.90;99.90;;;;;;10357862;28;20229;-76
2022/01/28 23:23:47;;;;;;;20.80;14.13;;;4.90;99.90;;;;;;10354036;28;20225;-75
2022/01/28 23:28:48;;;;;;;20.27;14.10;;;5.00;99.90;;;;;;10352924;28;20221;-76
2022/01/28 23:33:48;;;;;;;21.50;14.17;;;5.00;99.90;;;;;;10354549;28;20221;-76
2022/01/28 23:38:49;;;;;;;21.13;13.80;;;5.00;99.90;;;;;;10360910;28;20315;-76
2022/01/28 23:43:50;;;;;;;20.37;14.17;;;5.00;99.90;;;;;;10359352;28;20256;-76
2022/01/28 23:48:51;;;;;;;21.00;13.83;;;5.00;99.90;;;;;;10348011;28;20276;-75
2022/01/28 23:53:52;;;;;;;21.80;14.00;;;5.00;99.90;;;;;;10355985;28;20233;-74
2022/01/28 23:58:52;;;;;;;22.60;13.93;;;5.00;99.90;;;;;;10375392;28;20611;-76
